Terminal Aerodrome Forecast
Issued by NWS

Current Version | Previous Version | Graphics & Text | Print | Product List | Glossary On
Versions: 1 2 3 4 5 6 7 8 9 10 11 12 13 14 15 16
000
FTUS41 KILN 190822 AAA
TAFLUK
TAF AMD
KLUK 190822Z 1908/2006 00000KT 1SM BR SCT002
      TEMPO 1908/1912 1/4SM FG VV002
     FM191300 20004KT P6SM SKC
     FM191500 23009KT P6SM FEW250
     FM192300 21004KT P6SM SKC
     FM200300 00000KT P6SM SKC=

USA.gov is the U.S. government's official web portal to all federal, state and local government web resources and services.